Data for 09/02/2015

Time Sea-Level Adjusted Pressure Absolute Pressure Temperature Relative Humidity Dew Point   
(mb) (inHg) (mb) (inHg) (C) (F) (%) (C) (F)
00:05 1013 29.91 842 24.86 20.1 68.2 23 -1.5 29.3
00:10 1013 29.91 843 24.89 19.6 67.2 23 -1.8 28.7
00:15 1013 29.91 843 24.89 19.7 67.4 23 -1.8 28.7
00:20 1013 29.91 843 24.89 19.8 67.7 23 -1.9 28.6
00:25 1013 29.91 843 24.89 19.9 67.8 22 -2.3 27.9
00:30 1013 29.91 843 24.89 20 68 22 -2.5 27.5
00:35 1013 29.91 843 24.89 20.3 68.5 21 -2.8 27
00:40 1013 29.91 843 24.89 20.3 68.6 21 -2.5 27.4
00:45 1013 29.91 842 24.86 20.1 68.2 21 -2.4 27.6
00:50 1013 29.91 842 24.86 20 67.9 22 -2.1 28.3
00:55 1013 29.91 842 24.86 19.6 67.3 21 -3.2 26.3
01:00 1013 29.91 842 24.86 19.7 67.5 23 -1.8 28.8
01:05 1013 29.91 842 24.86 19.3 66.8 26 -0.6 31
01:10 1013 29.91 842 24.86 19.1 66.4 24 -1.5 29.2
01:15 1013 29.91 842 24.86 19 66.1 27 -0.3 31.4
01:20 1013 29.91 842 24.86 19.1 66.3 24 -2 28.4
01:25 1013 29.91 842 24.86 18.8 65.8 26 -1.1 30.1
01:30 1013 29.91 842 24.86 17.8 64.1 28 -0.9 30.5
01:35 1013 29.91 842 24.86 17.6 63.6 28 -1.2 29.8
01:40 1013 29.91 842 24.86 17.4 63.4 29 -0.6 30.9
01:45 1013 29.91 842 24.86 17.2 63 28 -1.1 29.9
01:50 1013 29.91 842 24.86 17.3 63.2 27 -1.8 28.7
01:55 1013 29.91 842 24.86 17.6 63.8 28 -1 30.2
02:00 1013 29.91 842 24.86 17.9 64.2 25 -2 28.4
02:05 1013 29.91 842 24.86 17.9 64.2 27 -1.4 29.5
02:10 1013 29.91 842 24.86 17.5 63.5 28 -0.9 30.3
02:15 1013 29.91 842 24.86 16.9 62.4 29 -1.1 29.9
02:20 1013 29.91 842 24.86 16.5 61.8 29 -1.6 29.2
02:25 1013 29.91 842 24.86 16.8 62.2 28 -1.6 29.2
02:30 1013 29.91 842 24.86 16.8 62.3 29 -1.1 30
02:35 1013 29.91 842 24.86 16.5 61.6 30 -1.1 30
02:40 1013 29.91 842 24.86 16.5 61.7 29 -1.4 29.4
02:45 1013 29.91 842 24.86 16.3 61.3 30 -1.2 29.9
02:50 1013 29.91 842 24.86 16.2 61.1 28 -2 28.3
02:55 1013 29.91 842 24.86 16.7 62.1 27 -2.2 28
03:00 1013 29.91 842 24.86 17.2 62.9 27 -2 28.3
03:05 1013 29.91 842 24.86 17.2 62.9 27 -1.7 28.9
03:10 1013 29.91 842 24.86 17 62.6 27 -1.9 28.7
03:15 1013 29.91 842 24.86 16.9 62.4 28 -1.8 28.8
03:20 1013 29.91 842 24.86 17 62.5 28 -1.8 28.8
03:25 1013 29.91 842 24.86 16.7 62 28 -1.7 29
03:30 1013 29.91 842 24.86 16.6 61.9 30 -1 30.1
03:35 1013 29.91 842 24.86 16.4 61.4 29 -1.4 29.4
03:40 1013 29.91 842 24.86 16.5 61.7 29 -1.3 29.6
03:45 1012 29.88 842 24.86 16.4 61.5 30 -1.2 29.8
03:50 1012 29.88 842 24.86 16.1 61 29 -1.6 29.1
03:55 1012 29.88 842 24.86 16.1 60.9 28 -2.2 28
04:00 1012 29.88 842 24.86 16.8 62.3 26 -2.4 27.6
04:05 1012 29.88 842 24.86 17.5 63.5 26 -2.3 27.9
04:10 1012 29.88 842 24.86 17.4 63.3 28 -1.3 29.7
04:15 1012 29.88 841 24.83 16.4 61.6 30 -1.2 29.9
04:20 1012 29.88 841 24.83 16.1 61 30 -1.3 29.7
04:25 1012 29.88 841 24.83 16 60.8 30 -1.3 29.6
04:30 1012 29.88 841 24.83 15.9 60.6 30 -1.5 29.3
04:35 1012 29.88 841 24.83 15.8 60.4 30 -1.7 29
04:40 1012 29.88 841 24.83 15.7 60.2 30 -1.7 28.9
04:45 1012 29.88 841 24.83 16.1 60.9 29 -1.9 28.6
04:50 1012 29.88 841 24.83 15.9 60.5 30 -1.6 29.2
04:55 1012 29.88 841 24.83 16.3 61.3 28 -2 28.3
05:00 1012 29.88 842 24.86 16.2 61.1 30 -1.3 29.6
05:05 1012 29.88 841 24.83 15.9 60.6 30 -1.7 28.9
05:10 1012 29.88 842 24.86 15.9 60.6 29 -2 28.3
05:15 1012 29.88 842 24.86 16.1 61 36 1.1 34.1
05:20 1012 29.88 842 24.86 16.1 61 30 -1.2 29.9
05:25 1012 29.88 842 24.86 16.2 61.2 27 -2.9 26.8
05:30 1012 29.88 842 24.86 17.6 63.6 26 -1.9 28.6
05:35 1012 29.88 842 24.86 16.6 62 30 -1.1 30.1
05:40 1012 29.88 842 24.86 15.7 60.2 30 -1.6 29.1
05:45 1012 29.88 842 24.86 15.8 60.4 33 -0.4 31.2
05:50 1012 29.88 842 24.86 15.5 59.9 31 -1.6 29.2
05:55 1013 29.91 842 24.86 15.3 59.6 33 -0.7 30.8
06:00 1013 29.91 842 24.86 14.9 58.9 33 -1 30.2
06:05 1013 29.91 842 24.86 14.9 58.7 33 -1 30.2
06:10 1013 29.91 842 24.86 15 58.9 32 -1.3 29.7
06:15 1013 29.91 842 24.86 15.2 59.4 32 -1.5 29.4
06:20 1013 29.91 842 24.86 15.5 60 34 -0.2 31.6
06:25 1013 29.91 842 24.86 15 58.9 34 -0.7 30.7
06:30 1013 29.91 842 24.86 15.2 59.3 34 -0.6 31
06:35 1013 29.91 842 24.86 15 58.9 34 -0.6 30.9
06:40 1013 29.91 842 24.86 14.9 58.9 36 0.1 32.2
06:45 1013 29.91 842 24.86 15 59 37 0.4 32.7
06:50 1013 29.91 842 24.86 15.4 59.7 34 -0.1 31.7
06:55 1013 29.91 842 24.86 15.5 59.9 36 0.5 33
07:00 1013 29.91 842 24.86 15.9 60.7 33 -0.2 31.6
07:05 1013 29.91 842 24.86 16.3 61.4 32 -0.3 31.5
07:10 1013 29.91 842 24.86 16.6 61.8 34 0.6 33.1
07:15 1013 29.91 842 24.86 16.9 62.5 34 0.9 33.7
07:20 1013 29.91 842 24.86 17.2 62.9 32 0.3 32.6
07:25 1013 29.91 842 24.86 17.6 63.6 30 0.1 32.3
07:30 1013 29.91 842 24.86 18.2 64.7 31 0.9 33.5
07:35 1013 29.91 842 24.86 18.5 65.3 30 1 33.7
07:40 1013 29.91 842 24.86 18.9 66 33 2.4 36.2
07:45 1013 29.91 842 24.86 17.8 64 35 2.1 35.8
07:50 1013 29.91 842 24.86 17.6 63.7 32 0.9 33.7
07:55 1013 29.91 842 24.86 17.9 64.3 32 1.3 34.3
08:00 1013 29.91 842 24.86 17.9 64.2 35 2.4 36.3
08:05 1013 29.91 842 24.86 18.1 64.7 34 2 35.6
08:10 1013 29.91 842 24.86 18.6 65.4 33 2.3 36.1
08:15 1013 29.91 842 24.86 18.8 65.8 33 2.3 36.2
08:20 1013 29.91 842 24.86 18.5 65.2 31 1.2 34.2
08:25 1013 29.91 842 24.86 19 66.3 28 0.2 32.3
08:30 1013 29.91 842 24.86 20.1 68.1 33 3.5 38.3
08:35 1013 29.91 842 24.86 20.2 68.3 27 0.7 33.2
08:40 1013 29.91 842 24.86 20.7 69.3 34 4.4 39.9
08:45 1013 29.91 842 24.86 21 69.8 36 5.4 41.7
08:50 1013 29.91 842 24.86 21.1 69.9 33 4.4 39.8
08:55 1013 29.91 842 24.86 22.1 71.8 31 4.4 39.9
09:00 1013 29.91 842 24.86 23.2 73.7 27 3.2 37.7
09:05 1013 29.91 842 24.86 23.4 74 27 3.5 38.4
09:10 1013 29.91 842 24.86 23.7 74.7 25 2.7 36.9
09:15 1013 29.91 842 24.86 24.2 75.6 23 2.2 35.9
09:20 1013 29.91 842 24.86 25.1 77.1 23 3 37.3
09:25 1013 29.91 842 24.86 24.9 76.8 22 2.1 35.7
09:30 1013 29.91 842 24.86 25.2 77.3 22 2.3 36.1
09:35 1013 29.91 842 24.86 25 77.1 21 1.4 34.5
09:40 1013 29.91 842 24.86 25.6 78.2 22 2.4 36.2
09:45 1013 29.91 842 24.86 25.7 78.3 21 2 35.6
09:50 1013 29.91 842 24.86 25.8 78.4 22 2.6 36.7
09:55 1013 29.91 842 24.86 26.5 79.7 19 1.6 34.8
10:00 1013 29.91 842 24.86 26.7 80.1 18 1 33.8
10:05 1013 29.91 842 24.86 27.3 81.1 17 0.4 32.7
10:10 1013 29.91 842 24.86 28 82.4 15 -0.3 31.4
10:15 1013 29.91 842 24.86 28.4 83.2 15 -0.2 31.6
10:20 1013 29.91 842 24.86 28 82.5 14 -1.7 28.9
10:25 1012 29.88 842 24.86 28.3 83 11 -4.7 23.5
10:30 1012 29.88 842 24.86 28.4 83.1 10 -5.2 22.6
10:35 1012 29.88 841 24.83 28.7 83.6 11 -4.3 24.2
10:40 1012 29.88 841 24.83 28.8 83.8 11 -4.6 23.8
10:45 1012 29.88 841 24.83 28.8 83.8 12 -3.6 25.6
10:50 1012 29.88 841 24.83 28.6 83.5 12 -3.6 25.5
10:55 1012 29.88 841 24.83 28.5 83.4 11 -4.3 24.2
11:00 1012 29.88 841 24.83 28.6 83.5 12 -3.8 25.2
11:05 1012 29.88 841 24.83 28.5 83.4 12 -3.5 25.7
11:10 1012 29.88 841 24.83 28.8 83.8 11 -4 24.8
11:15 1012 29.88 841 24.83 29.2 84.5 12 -3.3 26
11:20 1012 29.88 841 24.83 29.1 84.4 11 -3.5 25.7
11:25 1012 29.88 841 24.83 29.2 84.5 11 -3.6 25.6
11:30 1012 29.88 841 24.83 29 84.3 11 -3.9 25
11:35 1012 29.88 841 24.83 29.2 84.5 12 -3 26.6
11:40 1012 29.88 841 24.83 29.3 84.8 12 -3.2 26.3
11:45 1012 29.88 841 24.83 29.4 84.9 12 -3 26.7
11:50 1012 29.88 841 24.83 29.4 84.9 11 -3.3 26.1
11:55 1012 29.88 841 24.83 29 84.3 12 -2.6 27.2
12:00 1012 29.88 841 24.83 29.1 84.3 11 -3.8 25.1
12:05 1012 29.88 841 24.83 28.8 83.9 12 -3.6 25.5
12:10 1012 29.88 841 24.83 28.4 83.2 12 -3.8 25.1
12:15 1012 29.88 841 24.83 28.3 82.9 13 -2.9 26.8
12:20 1012 29.88 841 24.83 28.1 82.5 12 -3.7 25.3
12:25 1012 29.88 841 24.83 28.2 82.7 12 -3.8 25.1
12:30 1012 29.88 841 24.83 28.6 83.4 12 -3.2 26.2
12:35 1012 29.88 841 24.83 28.7 83.7 12 -3.1 26.4
12:40 1012 29.88 841 24.83 28.5 83.3 12 -3 26.6
12:45 1012 29.88 841 24.83 28.5 83.2 11 -4 24.8
12:50 1012 29.88 841 24.83 28.6 83.5 12 -3.1 26.4
12:55 1012 29.88 841 24.83 29 84.1 13 -2.4 27.8
13:00 1012 29.88 841 24.83 29.2 84.6 12 -3 26.5
13:05 1011 29.85 841 24.83 29.1 84.4 11 -4.3 24.3
13:10 1011 29.85 841 24.83 28.9 83.9 11 -3.8 25.1
13:15 1011 29.85 841 24.83 29.1 84.3 11 -4.4 24.1
13:20 1011 29.85 841 24.83 29.4 84.9 11 -3.8 25.1
13:25 1011 29.85 841 24.83 29.8 85.6 11 -3.6 25.6
13:30 1011 29.85 840 24.81 29.7 85.4 12 -2.1 28.3
13:35 1011 29.85 840 24.81 29.8 85.6 11 -3.4 25.8
13:40 1011 29.85 840 24.81 29.4 84.8 11 -3.7 25.3
13:45 1011 29.85 840 24.81 29.4 84.9 11 -3.9 24.9
13:50 1011 29.85 840 24.81 29 84.3 11 -4.2 24.5
13:55 1011 29.85 840 24.81 28.9 83.9 11 -4.1 24.6
14:00 1011 29.85 840 24.81 28.7 83.6 11 -4.2 24.4
14:05 1011 29.85 840 24.81 28.6 83.4 11 -4.6 23.7
14:10 1011 29.85 840 24.81 28.5 83.3 11 -4.2 24.5
14:15 1011 29.85 840 24.81 28.4 83.2 11 -4.6 23.7
14:20 1011 29.85 840 24.81 28.4 83 12 -3.7 25.3
14:25 1011 29.85 840 24.81 28.3 83 11 -4.3 24.3
14:30 1011 29.85 840 24.81 28.2 82.7 12 -3.7 25.4
14:35 1011 29.85 840 24.81 28.3 82.9 11 -5.3 22.4
14:40 1011 29.85 840 24.81 28.3 82.9 10 -5.7 21.8
14:45 1011 29.85 840 24.81 28.3 82.9 11 -4.9 23.1
14:50 1011 29.85 840 24.81 28.2 82.8 11 -4.4 24.1
14:55 1011 29.85 840 24.81 28.1 82.5 12 -3.9 24.9
15:00 1011 29.85 840 24.81 28.1 82.5 11 -4.7 23.6
15:05 1011 29.85 840 24.81 28.5 83.2 11 -4.3 24.3
15:10 1011 29.85 840 24.81 28.6 83.4 11 -4 24.8
15:15 1011 29.85 840 24.81 28.5 83.2 10 -5.2 22.6
15:20 1011 29.85 840 24.81 28.5 83.3 11 -5 23.1
15:25 1011 29.85 840 24.81 28.4 83.1 11 -4.8 23.3
15:30 1011 29.85 840 24.81 28.5 83.3 11 -4.6 23.7
15:35 1011 29.85 840 24.81 29 84.2 10 -5.1 22.9
15:40 1011 29.85 840 24.81 29.1 84.3 10 -5 23
15:45 1011 29.85 840 24.81 29 84.1 10 -5 23
15:50 1011 29.85 840 24.81 29.1 84.4 10 -4.7 23.5
15:55 1011 29.85 840 24.81 29.3 84.7 11 -4.2 24.4
16:00 1011 29.85 840 24.81 29.2 84.6 9 -6.2 20.8
16:05 1011 29.85 840 24.81 29.1 84.3 9 -6.6 20.1
16:10 1011 29.85 840 24.81 28.9 84.1 10 -5.5 22.1
16:15 1011 29.85 840 24.81 29 84.2 10 -5.9 21.4
16:20 1011 29.85 840 24.81 29 84.3 10 -6 21.1
16:25 1011 29.85 840 24.81 28.8 83.9 10 -5.8 21.5
16:30 1011 29.85 840 24.81 28.6 83.5 10 -5.7 21.7
16:35 1011 29.85 840 24.81 28.9 83.9 10 -5.8 21.5
16:40 1011 29.85 840 24.81 28.8 83.8 9 -6.3 20.6
16:45 1011 29.85 840 24.81 28.6 83.5 10 -6.1 21
16:50 1011 29.85 840 24.81 28.6 83.5 9 -6.9 19.5
16:55 1011 29.85 840 24.81 28.6 83.4 10 -6.3 20.6
17:00 1011 29.85 840 24.81 28.5 83.4 10 -6 21.3
17:05 1011 29.85 840 24.81 28.7 83.7 10 -5 23
17:10 1011 29.85 840 24.81 28.7 83.6 11 -4.4 24.1
17:15 1011 29.85 840 24.81 28.7 83.7 10 -5.5 22.1
17:20 1011 29.85 840 24.81 28.5 83.2 10 -5.4 22.2
17:25 1011 29.85 840 24.81 28.3 83 10 -5.4 22.3
17:30 1011 29.85 840 24.81 28.2 82.7 11 -5.2 22.6
17:35 1011 29.85 840 24.81 28 82.4 11 -5.2 22.6
17:40 1011 29.85 840 24.81 27.8 82.1 11 -5.6 22
17:45 1011 29.85 840 24.81 27.8 82 11 -5.4 22.2
17:50 1011 29.85 840 24.81 27.6 81.6 11 -5 23
17:55 1011 29.85 840 24.81 27.2 81 11 -5.5 22
18:00 1011 29.85 840 24.81 27.2 81 11 -5.1 22.8
18:05 1011 29.85 840 24.81 27.1 80.7 12 -4.9 23.1
18:10 1011 29.85 840 24.81 26.8 80.3 12 -4.6 23.7
18:15 1011 29.85 840 24.81 26.6 79.9 12 -4.9 23.2
18:20 1011 29.85 841 24.83 26.6 79.8 12 -4.7 23.6
18:25 1011 29.85 841 24.83 26.2 79.1 12 -4.7 23.5
18:30 1011 29.85 841 24.83 26.1 79 12 -5.3 22.4
18:35 1011 29.85 841 24.83 26.3 79.4 12 -5.4 22.3
18:40 1011 29.85 841 24.83 26.4 79.6 12 -5.2 22.6
18:45 1011 29.85 841 24.83 26.6 79.8 12 -5.2 22.7
18:50 1011 29.85 841 24.83 26.4 79.6 12 -5.3 22.4
18:55 1011 29.85 841 24.83 26.4 79.4 11 -5.7 21.8
19:00 1012 29.88 841 24.83 26.5 79.8 12 -5.1 22.8
19:05 1012 29.88 841 24.83 25.9 78.6 12 -4.9 23.1
19:10 1012 29.88 841 24.83 25.4 77.7 12 -5.3 22.4
19:15 1012 29.88 841 24.83 25.9 78.6 12 -5.8 21.6
19:20 1012 29.88 841 24.83 26 78.9 12 -5.6 22
19:25 1012 29.88 841 24.83 25.9 78.6 12 -5.4 22.2
19:30 1012 29.88 841 24.83 25.5 78 12 -5.3 22.4
19:35 1012 29.88 841 24.83 25.4 77.6 12 -5.6 22
19:40 1012 29.88 841 24.83 25.4 77.7 13 -5 23
19:45 1012 29.88 841 24.83 25.2 77.3 12 -5.6 22
19:50 1012 29.88 841 24.83 25.3 77.5 12 -5.5 22.1
19:55 1012 29.88 841 24.83 25.5 78 12 -5.7 21.7
20:00 1012 29.88 841 24.83 25.7 78.2 12 -5.4 22.3
20:05 1012 29.88 841 24.83 25.4 77.7 12 -5.8 21.6
20:10 1012 29.88 841 24.83 25.2 77.4 13 -5.2 22.6
20:15 1012 29.88 841 24.83 25 77 12 -5.9 21.3
20:20 1012 29.88 841 24.83 25.2 77.3 13 -5.3 22.4
20:25 1012 29.88 841 24.83 24.9 76.8 13 -5.7 21.8
20:30 1012 29.88 841 24.83 25 77.1 12 -5.8 21.5
20:35 1012 29.88 841 24.83 25.2 77.4 12 -5.7 21.7
20:40 1012 29.88 841 24.83 25.6 78.1 12 -6 21.3
20:45 1012 29.88 841 24.83 25.6 78.1 12 -5.4 22.4
20:50 1012 29.88 841 24.83 25.4 77.7 12 -5.8 21.6
20:55 1012 29.88 841 24.83 25.5 78 12 -5.4 22.3
21:00 1012 29.88 841 24.83 25.4 77.8 12 -5.4 22.2
21:05 1012 29.88 841 24.83 25.4 77.6 13 -5.1 22.8
21:10 1012 29.88 841 24.83 25.5 77.9 13 -4.7 23.5
21:15 1012 29.88 841 24.83 25.2 77.3 13 -5.1 22.9
21:20 1012 29.88 841 24.83 24.8 76.7 13 -5.1 22.9
21:25 1012 29.88 841 24.83 24.5 76.1 13 -5.1 22.9
21:30 1012 29.88 841 24.83 24.4 75.9 14 -4.8 23.4
21:35 1012 29.88 841 24.83 24.2 75.6 14 -4.8 23.3
21:40 1012 29.88 841 24.83 24.1 75.3 15 -4.2 24.4
21:45 1012 29.88 842 24.86 23.3 73.9 16 -3.9 24.9
21:50 1012 29.88 842 24.86 22.4 72.3 18 -2.7 27.1
21:55 1012 29.88 842 24.86 21.8 71.2 19 -2.5 27.6
22:00 1013 29.91 842 24.86 21.2 70.2 20 -2.2 28
22:05 1012 29.88 842 24.86 20.8 69.5 22 -1.7 29
22:10 1013 29.91 842 24.86 20.4 68.7 23 -1.1 30
22:15 1012 29.88 842 24.86 20 68 24 -0.8 30.5
22:20 1013 29.91 842 24.86 19.5 67.1 26 -0.5 31.1
22:25 1013 29.91 842 24.86 18.8 65.9 27 -0.3 31.5
22:30 1013 29.91 842 24.86 18.2 64.8 28 -0.2 31.6
22:35 1013 29.91 842 24.86 18.2 64.8 28 -0.4 31.3
22:40 1013 29.91 842 24.86 18.2 64.7 29 0.2 32.3
22:45 1013 29.91 842 24.86 17.8 64 30 0.3 32.5
22:50 1013 29.91 842 24.86 17.5 63.5 31 0.3 32.6
22:55 1013 29.91 842 24.86 17.3 63.1 32 0.3 32.6
23:00 1013 29.91 842 24.86 17.2 63 31 0.2 32.3
23:05 1013 29.91 842 24.86 17.3 63.1 32 0.4 32.6
23:10 1013 29.91 842 24.86 17.3 63.2 31 0.3 32.5
23:15 1013 29.91 842 24.86 17.3 63.2 32 0.5 33
23:20 1013 29.91 842 24.86 17.1 62.8 32 0.3 32.5
23:25 1013 29.91 842 24.86 17.2 63 31 0.3 32.5
23:30 1013 29.91 842 24.86 17.2 63 32 0.4 32.7
23:35 1013 29.91 842 24.86 17 62.6 33 0.8 33.5
23:40 1013 29.91 842 24.86 16.8 62.2 32 0.3 32.5
23:45 1013 29.91 842 24.86 17.1 62.8 32 0.5 32.9
23:50 1013 29.91 842 24.86 17.1 62.8 33 0.7 33.2
23:55 1013 29.91 842 24.86 16.9 62.4 33 0.8 33.4
24:00 1013 29.91 842 24.86 16.8 62.3 33 0.6 33.1